x

St. Augustine, Fl (sauf1) Weather Station

8:00am - Sat 21st Jan 2017 All times are EST. -5 hours from GMT.

  • Wind
    7mph, 9mph gusts
  • Sea Temp 63°f
  • Air Temp 65°f
  • Sea Pressure 1013.8mb
  • St. Augustine, Fl
  • St. Augustine, Fl

More Historic Weather Station data

Upgrade to MSW Pro to gain access to the past 30 days of data for over 8000 Wavebouys and Weather Stations around the globe.

Join Pro

Comparision Forecast

View Surf forecast
   
Sat 01/21 8:00am 7 9 mph 1013.8mb 63f 65f
7:00am 8 9 mph 1013.7mb 63f 64f
6:00am 8 9 mph 1013.5mb 63f 64f
5:00am 8 10 mph 1013.6mb 63f 64f
4:00am 7 9 mph 1014.5mb 63f 65f
3:00am 7 8 mph 1014.9mb 63f 66f
2:00am 6 8 mph 1015.1mb 63f 66f
1:00am 5 6 mph 1015mb 63f 66f
12:00am 5 6 mph 1015.3mb 63f 67f
Fri 01/20 11:00pm 5 6 mph 1015.5mb 63f 68f
10:00pm 3
mph
1015.2mb 63f 69f
9:00pm 5 6 mph 1015mb 63f 71f
8:00pm 5 6 mph 1014.5mb 63f 72f
7:00pm 5 6 mph 1013.9mb 63f 74f
6:00pm 7 9 mph 1013.5mb 63f 77f
5:00pm 7 9 mph 1012.8mb 63f 79f
4:00pm 13 15 mph 1012.6mb 63f 80f
3:00pm 11 15 mph 1012.4mb 63f 80f
2:00pm 13 20 mph 1012.5mb 63f 80f
1:00pm 14 17 mph 1013mb 63f 78f
12:00pm 15 21 mph 1014.2mb 63f 74f
11:00am 13 16 mph 1015mb 63f 73f
10:00am 8 10 mph 1015.4mb 63f 69f
9:00am 8 10 mph 1014.6mb 62f 66f
8:00am 10 13 mph 1014.2mb 62f 64f
7:00am 7 9 mph 1014.5mb 62f 63f
6:00am 8 10 mph 1014.6mb 62f 63f
5:00am 5 7 mph 1014.7mb 62f 62f
4:00am 6 7 mph 1015.1mb 62f 62f
3:00am 7 9 mph 1015.4mb 62f 63f
2:00am 5 6 mph 1015.5mb 62f 63f
1:00am 3 5 mph 1015.4mb 62f 64f
12:00am 7 9 mph 1016mb 63f 64f
Thu 01/19 11:00pm 5 6 mph 1015.7mb 64f 64f
10:00pm 5
mph
1015.6mb 64f 64f
9:00pm 5
mph
1015.4mb 64f 62f
8:00pm 9
mph
1015.8mb 64f 64f
7:00pm 7 8 mph 1016.2mb 64f 63f
6:00pm 9 10 mph 1016.1mb 64f 64f
5:00pm 2 3 mph 1016.1mb 63f 65f
4:00pm 6 7 mph 1016.2mb 63f 65f
3:00pm 7 8 mph 1016mb 63f 65f
2:00pm 7 8 mph 1016.5mb 64f 63f
1:00pm 6 7 mph 1017.4mb 63f 62f
12:00pm 6
mph
1018.8mb 63f 63f
11:00am 6 7 mph 1019.8mb 62f 64f
10:00am 3 5 mph 1019.7mb 62f 65f
9:00am 3 5 mph 1019.2mb 62f 63f
8:00am 3 5 mph 1019mb 62f 63f
7:00am 7 9 mph 1018.7mb 62f 64f
6:00am 7 9 mph 1018.4mb 62f 63f
5:00am 6 7 mph 1018.2mb 62f 63f
4:00am 6 7 mph 1018.2mb 62f 63f
3:00am 6 8 mph 1018.6mb 62f 63f
2:00am 6 8 mph 1018.6mb 62f 64f
1:00am 7 8 mph 1018.8mb 62f 65f
12:00am 5 6 mph 1019.4mb 63f 66f
Wed 01/18 11:00pm 7 8 mph 1019.6mb 63f 66f
10:00pm 6 7 mph 1020.2mb 63f 68f
9:00pm 7 8 mph 1020.2mb 63f 69f
8:00pm 3
mph
1020.4mb 63f 71f
7:00pm 3
mph
1020.4mb 63f 73f
6:00pm 3
mph
1020.3mb 63f 74f
5:00pm 8 9 mph 1019.7mb 63f 76f
4:00pm 7 9 mph 1019.5mb 62f 77f
3:00pm 8 11 mph 1019.7mb 62f 77f
2:00pm 8 11 mph 1019.9mb 62f 77f
1:00pm 13 18 mph 1020.8mb 62f 76f
12:00pm 11 15 mph 1022mb 62f 76f
11:00am 8 9 mph 1023.1mb 62f 74f
10:00am 7 8 mph 1023.3mb 62f 69f
9:00am 6 7 mph 1023.4mb 62f 63f
8:00am 7 8 mph 1022.8mb 62f 60f
7:00am 7
mph
1022.4mb 62f 61f
6:00am 7
mph
1021.9mb 62f 61f
5:00am 8
mph
1021.6mb 62f 62f
4:00am 6 7 mph 1021.9mb 62f 62f
3:00am 6 7 mph 1022.5mb 62f 62f
2:00am 7 8 mph 1023mb 62f 63f
1:00am 6 7 mph 1023.2mb 62f 64f
12:00am 3 5 mph 1023.5mb 63f 65f
Tue 01/17 11:00pm 6 7 mph 1024.3mb 63f 66f
10:00pm 8 9 mph 1024.7mb 64f 66f
9:00pm 7
mph
1024.6mb 65f 66f
8:00pm 2 3 mph 1025mb 65f 67f
7:00pm 3 5 mph 1024.2mb 65f 66f
6:00pm 6 7 mph 1023.8mb 65f 67f
5:00pm 7
mph
1023.3mb 66f 67f
4:00pm 7 8 mph 1023.5mb 66f 67f
3:00pm 9
mph
1023.6mb 65f 67f